createdAt,value
2022-09-17T00:01:08.553Z,2.35
2022-09-17T00:03:35.980Z,2.38
2022-09-17T00:06:08.698Z,2.40
2022-09-17T00:08:37.428Z,2.80
2022-09-17T00:11:12.550Z,2.45
2022-09-17T00:13:39.451Z,3.65
2022-09-17T00:16:06.281Z,2.80
2022-09-17T00:18:33.121Z,2.30
2022-09-17T00:20:59.684Z,3.30
2022-09-17T00:23:26.187Z,2.45
2022-09-17T00:25:52.721Z,2.60
2022-09-17T00:28:19.223Z,2.65
2022-09-17T00:30:46.153Z,2.97
2022-09-17T00:33:15.110Z,3.50
2022-09-17T00:35:42.037Z,2.70
2022-09-17T00:38:09.501Z,2.53
2022-09-17T00:40:36.575Z,2.17
2022-09-17T00:43:04.764Z,2.38
2022-09-17T00:48:00.746Z,1.85
2022-09-17T00:50:34.910Z,1.80
2022-09-17T00:53:07.200Z,2.10
2022-09-17T00:55:38.746Z,2.35
2022-09-17T00:58:08.218Z,1.25
2022-09-17T01:00:34.879Z,1.40
2022-09-17T01:03:01.434Z,1.85
2022-09-17T01:05:32.322Z,1.42
2022-09-17T01:08:21.340Z,1.27
2022-09-17T01:11:10.983Z,1.40
2022-09-17T01:13:43.337Z,1.02
2022-09-17T01:16:20.058Z,1.10
2022-09-17T01:19:08.442Z,1.00
2022-09-17T01:22:13.449Z,1.13
2022-09-17T01:25:03.186Z,1.10
2022-09-17T01:27:58.314Z,0.93
2022-09-17T01:30:52.721Z,1.10
2022-09-17T01:33:51.932Z,0.80
2022-09-17T01:37:07.995Z,0.80
2022-09-17T01:39:50.028Z,0.90
2022-09-17T01:42:37.785Z,1.58
2022-09-17T01:45:13.555Z,1.10
2022-09-17T01:47:47.839Z,1.00
2022-09-17T01:50:26.018Z,0.60
2022-09-17T01:52:55.603Z,0.80
2022-09-17T01:55:27.095Z,0.77
2022-09-17T01:58:04.271Z,0.80
2022-09-17T02:00:31.243Z,1.33
2022-09-17T02:03:05.564Z,0.45
2022-09-17T02:05:41.922Z,0.93
2022-09-17T02:08:17.034Z,0.77
2022-09-17T02:10:48.331Z,1.08
2022-09-17T02:13:22.748Z,1.05
2022-09-17T02:15:56.397Z,1.00
2022-09-17T02:18:28.348Z,0.93
2022-09-17T02:21:11.342Z,1.10
2022-09-17T02:23:47.736Z,0.80
2022-09-17T02:26:20.552Z,0.68
2022-09-17T02:29:07.067Z,1.02
2022-09-17T02:31:33.731Z,0.82
2022-09-17T02:34:02.986Z,0.93
2022-09-17T02:36:30.556Z,0.68
2022-09-17T02:39:02.394Z,0.75
2022-09-17T02:41:37.409Z,0.85
2022-09-17T02:44:36.482Z,1.23
2022-09-17T02:47:12.267Z,1.05
2022-09-17T02:50:00.062Z,1.20
2022-09-17T02:53:03.738Z,1.38
2022-09-17T02:55:30.141Z,1.42
2022-09-17T02:58:16.537Z,1.67
2022-09-17T03:00:44.967Z,1.02
2022-09-17T03:03:29.480Z,1.27
2022-09-17T03:05:56.199Z,1.00
2022-09-17T03:08:39.244Z,1.23
2022-09-17T03:11:06.799Z,1.23
2022-09-17T03:13:33.279Z,1.48
2022-09-17T03:15:59.933Z,1.25
2022-09-17T03:18:26.408Z,1.20
2022-09-17T03:20:52.930Z,1.15
2022-09-17T03:23:19.448Z,2.30
2022-09-17T03:25:46.829Z,1.70
2022-09-17T03:28:13.338Z,1.00
2022-09-17T03:30:39.779Z,1.20
2022-09-17T03:33:06.321Z,1.00
2022-09-17T03:35:32.834Z,1.33
2022-09-17T03:37:59.348Z,1.02
2022-09-17T03:40:26.023Z,1.00
2022-09-17T03:42:52.618Z,1.13
2022-09-17T03:45:19.085Z,1.23
2022-09-17T03:47:45.659Z,0.80
2022-09-17T03:50:12.191Z,1.33
2022-09-17T03:52:38.654Z,1.27
2022-09-17T03:55:05.728Z,1.08
2022-09-17T03:57:32.270Z,1.92
2022-09-17T03:59:58.920Z,1.20
2022-09-17T04:02:25.571Z,1.05
2022-09-17T04:04:52.149Z,1.00
2022-09-17T04:07:18.606Z,1.20
2022-09-17T04:09:45.099Z,1.08
2022-09-17T04:12:11.644Z,0.90
2022-09-17T04:14:38.232Z,0.90
2022-09-17T04:17:04.811Z,0.73
2022-09-17T04:19:31.296Z,1.20
2022-09-17T04:21:57.977Z,1.27
2022-09-17T04:24:27.154Z,2.22
2022-09-17T04:26:53.783Z,0.85
2022-09-17T04:29:20.225Z,1.10
2022-09-17T04:31:46.813Z,1.15
2022-09-17T04:34:13.371Z,0.80
2022-09-17T04:36:39.923Z,1.20
2022-09-17T04:39:06.546Z,0.98
2022-09-17T04:41:33.042Z,1.20
2022-09-17T04:43:59.738Z,0.60
2022-09-17T04:46:26.365Z,1.42
2022-09-17T04:48:52.823Z,0.70
2022-09-17T04:51:19.438Z,0.98
2022-09-17T04:53:45.944Z,1.00
2022-09-17T04:56:12.407Z,1.70
2022-09-17T04:58:38.924Z,0.90
2022-09-17T05:01:05.801Z,1.42
2022-09-17T05:03:32.352Z,0.77
2022-09-17T05:05:58.836Z,0.50
2022-09-17T05:08:25.318Z,0.63
2022-09-17T05:10:51.887Z,0.80
2022-09-17T05:13:18.415Z,0.70
2022-09-17T05:15:45.085Z,0.98
2022-09-17T05:18:14.466Z,0.80
2022-09-17T05:20:40.952Z,0.93
2022-09-17T05:23:07.523Z,0.85
2022-09-17T05:25:34.201Z,1.50
2022-09-17T05:28:01.147Z,0.90
2022-09-17T05:30:27.697Z,0.90
2022-09-17T05:33:02.038Z,1.23
2022-09-17T05:35:29.758Z,1.00
2022-09-17T05:38:00.675Z,0.80
2022-09-17T05:40:28.239Z,0.70
2022-09-17T05:42:59.060Z,0.80
2022-09-17T05:45:26.060Z,0.80
2022-09-17T05:48:00.477Z,1.00
2022-09-17T05:50:28.886Z,1.08
2022-09-17T05:52:55.907Z,0.80
2022-09-17T05:55:23.771Z,0.80
2022-09-17T05:57:51.028Z,0.82
2022-09-17T06:00:18.238Z,1.07
2022-09-17T06:02:44.900Z,0.95
2022-09-17T06:05:11.615Z,1.27
2022-09-17T06:07:38.997Z,0.90
2022-09-17T06:10:06.700Z,1.10
2022-09-17T06:12:33.172Z,1.00
2022-09-17T06:14:59.680Z,1.23
2022-09-17T06:17:26.132Z,1.00
2022-09-17T06:19:52.644Z,0.70
2022-09-17T06:22:19.852Z,1.17
2022-09-17T06:24:46.587Z,1.10
2022-09-17T06:27:13.094Z,0.85
2022-09-17T06:29:39.998Z,0.85
2022-09-17T06:32:08.731Z,0.63
2022-09-17T06:34:35.181Z,1.15
2022-09-17T06:37:01.659Z,1.20
2022-09-17T06:39:28.315Z,1.08
2022-09-17T06:41:54.819Z,0.80
2022-09-17T06:44:21.262Z,1.20
2022-09-17T06:46:50.103Z,2.05
2022-09-17T06:49:17.398Z,1.00
2022-09-17T06:51:44.567Z,0.90
2022-09-17T06:54:11.444Z,1.23
2022-09-17T06:56:37.924Z,1.00
2022-09-17T06:59:04.736Z,1.70
2022-09-17T07:01:31.300Z,1.10
2022-09-17T07:03:58.213Z,0.70
2022-09-17T07:06:24.737Z,1.45
2022-09-17T07:08:51.208Z,0.80
2022-09-17T07:11:17.754Z,0.70
2022-09-17T07:13:44.276Z,0.90
2022-09-17T07:16:10.895Z,0.90
2022-09-17T07:18:37.467Z,0.90
2022-09-17T07:21:05.837Z,1.23
2022-09-17T07:23:34.982Z,0.80
2022-09-17T07:26:05.587Z,1.38
2022-09-17T07:28:32.303Z,1.85
2022-09-17T07:31:02.353Z,0.88
2022-09-17T07:33:28.878Z,0.80
2022-09-17T07:35:58.195Z,1.00
2022-09-17T07:38:26.091Z,1.10
2022-09-17T07:41:04.559Z,0.98
2022-09-17T07:43:34.124Z,0.80
2022-09-17T07:46:03.143Z,1.45
2022-09-17T07:48:30.499Z,1.10
2022-09-17T07:50:57.547Z,1.20
2022-09-17T07:53:24.742Z,1.02
2022-09-17T07:55:59.305Z,0.90
2022-09-17T07:58:43.807Z,1.02
2022-09-17T08:01:12.429Z,1.20
2022-09-17T08:03:40.039Z,1.10
2022-09-17T08:06:09.080Z,1.33
2022-09-17T08:08:36.946Z,1.48
2022-09-17T08:11:08.631Z,1.15
2022-09-17T08:13:35.194Z,0.90
2022-09-17T08:16:04.890Z,0.82
2022-09-17T08:18:31.944Z,0.90
2022-09-17T08:21:00.044Z,1.63
2022-09-17T08:25:55.456Z,1.00
2022-09-17T08:28:25.945Z,1.10
2022-09-17T08:30:53.537Z,1.02
2022-09-17T08:33:21.150Z,0.95
2022-09-17T08:35:55.352Z,1.50
2022-09-17T08:38:22.063Z,1.02
2022-09-17T08:41:07.260Z,1.05
2022-09-17T08:43:41.135Z,1.42
2022-09-17T08:46:11.022Z,0.63
2022-09-17T08:48:43.275Z,1.13
2022-09-17T08:51:22.784Z,0.80
2022-09-17T08:54:02.640Z,1.48
2022-09-17T08:56:33.952Z,0.93
2022-09-17T08:59:11.433Z,0.60
2022-09-17T09:01:45.559Z,1.10
2022-09-17T09:04:23.968Z,1.92
2022-09-17T09:06:55.586Z,0.82
2022-09-17T09:09:28.403Z,0.60
2022-09-17T09:12:03.364Z,0.98
2022-09-17T09:14:44.616Z,0.80
2022-09-17T09:17:11.421Z,0.70
2022-09-17T09:19:43.893Z,0.80
2022-09-17T09:22:33.915Z,1.00
2022-09-17T09:25:20.444Z,0.90
2022-09-17T09:28:08.447Z,0.70
2022-09-17T09:30:55.341Z,0.80
2022-09-17T09:33:30.104Z,1.47
2022-09-17T09:35:56.774Z,1.25
2022-09-17T09:38:32.651Z,1.02
2022-09-17T09:41:19.380Z,1.38
2022-09-17T09:44:12.652Z,0.82
2022-09-17T09:46:52.170Z,0.55
2022-09-17T09:49:55.795Z,1.00
2022-09-17T09:52:31.303Z,1.05
2022-09-17T09:55:17.315Z,1.27
2022-09-17T09:57:49.660Z,1.00
2022-09-17T10:00:31.555Z,1.20
2022-09-17T10:03:10.354Z,1.20
2022-09-17T10:05:36.919Z,0.90
2022-09-17T10:08:14.383Z,0.75
2022-09-17T10:11:20.194Z,1.33
2022-09-17T10:13:46.685Z,1.73
2022-09-17T10:16:16.333Z,1.08
2022-09-17T10:18:43.013Z,1.20
2022-09-17T10:21:38.800Z,1.55
2022-09-17T10:24:21.332Z,1.90
2022-09-17T10:26:48.011Z,9.27
2022-09-17T10:29:18.343Z,7.97
2022-09-17T10:31:52.820Z,3.17
2022-09-17T10:34:27.888Z,2.55
2022-09-17T10:36:55.283Z,3.45
2022-09-17T10:39:35.311Z,4.78
2022-09-17T10:42:03.256Z,1.90
2022-09-17T10:44:32.063Z,2.53
2022-09-17T10:47:10.949Z,1.10
2022-09-17T10:49:41.360Z,1.33
2022-09-17T10:52:18.167Z,1.90
2022-09-17T10:55:01.740Z,1.08
2022-09-17T10:57:51.289Z,1.50
2022-09-17T11:00:20.576Z,1.10
2022-09-17T11:03:34.921Z,1.25
2022-09-17T11:06:36.735Z,1.02
2022-09-17T11:09:29.666Z,1.17
2022-09-17T11:12:02.296Z,0.80
2022-09-17T11:14:46.719Z,1.50
2022-09-17T11:17:50.268Z,1.20
2022-09-17T11:20:37.186Z,1.05
2022-09-17T11:23:41.108Z,0.77
2022-09-17T11:26:33.612Z,0.80
2022-09-17T11:29:27.263Z,1.20
2022-09-17T11:32:26.685Z,1.23
2022-09-17T11:35:09.536Z,0.90
2022-09-17T11:37:42.008Z,1.10
2022-09-17T11:40:36.877Z,1.20
2022-09-17T11:43:27.724Z,1.10
2022-09-17T11:46:02.420Z,1.52
2022-09-17T11:48:52.522Z,1.77
2022-09-17T11:51:32.037Z,1.20
2022-09-17T11:54:17.534Z,0.88
2022-09-17T11:56:47.766Z,0.75
2022-09-17T11:59:26.266Z,1.55
2022-09-17T12:01:54.720Z,1.98
2022-09-17T12:04:46.038Z,1.20
2022-09-17T12:07:15.347Z,1.45
2022-09-17T12:09:43.796Z,1.92
2022-09-17T12:12:47.650Z,1.55
2022-09-17T12:15:26.834Z,1.33
2022-09-17T12:18:31.027Z,1.00
2022-09-17T12:21:00.441Z,1.15
2022-09-17T12:23:36.377Z,2.08
2022-09-17T12:26:14.131Z,1.45
2022-09-17T12:29:15.994Z,0.98
2022-09-17T12:31:46.426Z,0.93
2022-09-17T12:34:48.008Z,1.08
2022-09-17T12:37:21.060Z,0.80
2022-09-17T12:40:29.153Z,1.15
2022-09-17T12:43:20.003Z,1.00
2022-09-17T12:46:25.390Z,0.60
2022-09-17T12:49:18.308Z,1.40
2022-09-17T12:51:55.559Z,1.15
2022-09-17T12:54:45.464Z,0.80
2022-09-17T12:57:30.953Z,1.13
2022-09-17T13:00:08.156Z,1.20
2022-09-17T13:02:45.280Z,0.70
2022-09-17T13:05:35.192Z,1.15
2022-09-17T13:08:26.825Z,1.25
2022-09-17T13:11:00.404Z,1.00
2022-09-17T13:13:52.832Z,1.17
2022-09-17T13:16:43.037Z,1.10
2022-09-17T13:19:36.250Z,1.13
2022-09-17T13:22:20.531Z,0.90
2022-09-17T13:25:00.998Z,1.25
2022-09-17T13:27:27.974Z,1.90
2022-09-17T13:29:54.406Z,1.25
2022-09-17T13:32:32.913Z,1.20
2022-09-17T13:35:22.305Z,1.27
2022-09-17T13:37:48.806Z,1.17
2022-09-17T13:40:25.909Z,1.05
2022-09-17T13:42:54.434Z,1.00
2022-09-17T13:45:23.208Z,1.10
2022-09-17T13:47:52.194Z,1.60
2022-09-17T13:50:30.505Z,1.25
2022-09-17T13:52:58.889Z,0.93
2022-09-17T13:55:36.141Z,0.80
2022-09-17T13:58:12.264Z,0.90
2022-09-17T14:00:48.107Z,1.30
2022-09-17T14:03:30.055Z,1.15
2022-09-17T14:06:05.776Z,1.23
2022-09-17T14:08:44.354Z,1.00
2022-09-17T14:11:22.878Z,1.55
2022-09-17T14:14:04.317Z,1.00
2022-09-17T14:16:30.778Z,1.58
2022-09-17T14:19:01.492Z,1.13
2022-09-17T14:21:34.843Z,1.05
2022-09-17T14:24:04.403Z,0.85
2022-09-17T14:27:14.786Z,0.95
2022-09-17T14:30:01.280Z,1.45
2022-09-17T14:32:30.076Z,0.93
2022-09-17T14:34:57.005Z,0.95
2022-09-17T14:37:24.231Z,0.63
2022-09-17T14:39:52.434Z,0.40
2022-09-17T14:42:27.539Z,0.60
2022-09-17T14:45:26.795Z,1.25
2022-09-17T14:48:19.276Z,1.33
2022-09-17T14:50:45.909Z,0.70
2022-09-17T14:53:17.679Z,0.45
2022-09-17T14:55:51.295Z,0.73
2022-09-17T14:58:37.533Z,0.60
2022-09-17T15:01:04.127Z,0.95
2022-09-17T15:03:30.614Z,1.08
2022-09-17T15:05:57.274Z,0.75
2022-09-17T15:08:28.087Z,0.60
2022-09-17T15:10:57.891Z,0.60
2022-09-17T15:13:50.761Z,0.90
2022-09-17T15:16:23.542Z,0.70
2022-09-17T15:18:55.892Z,1.10
2022-09-17T15:21:36.411Z,0.90
2022-09-17T15:24:43.449Z,1.00
2022-09-17T15:27:41.445Z,1.25
2022-09-17T15:30:15.730Z,0.45
2022-09-17T15:32:48.557Z,0.70
2022-09-17T15:35:15.401Z,0.80
2022-09-17T15:38:18.443Z,0.50
2022-09-17T15:40:40.590Z,0.90
2022-09-17T15:43:30.372Z,0.60
2022-09-17T15:45:57.877Z,1.50
2022-09-17T15:48:27.326Z,0.50
2022-09-17T15:50:59.827Z,0.57
2022-09-17T15:53:33.406Z,0.63
2022-09-17T15:56:16.425Z,0.50
2022-09-17T15:58:42.951Z,0.30
2022-09-17T16:01:14.915Z,0.40
2022-09-17T16:03:41.459Z,0.65
2022-09-17T16:06:20.061Z,0.30
2022-09-17T16:08:52.013Z,0.40
2022-09-17T16:11:31.797Z,0.55
2022-09-17T16:14:00.970Z,0.35
2022-09-17T16:16:35.399Z,0.35
2022-09-17T16:19:02.339Z,0.90
2022-09-17T16:21:29.041Z,0.50
2022-09-17T16:23:55.604Z,0.20
2022-09-17T16:26:27.961Z,0.70
2022-09-17T16:28:59.805Z,0.88
2022-09-17T16:31:26.331Z,0.77
2022-09-17T16:33:52.941Z,0.60
2022-09-17T16:36:19.455Z,0.88
2022-09-17T16:38:45.921Z,0.70
2022-09-17T16:41:12.467Z,0.55
2022-09-17T16:43:39.136Z,0.45
2022-09-17T16:46:10.677Z,0.73
2022-09-17T16:48:38.236Z,0.38
2022-09-17T16:51:09.104Z,0.50
2022-09-17T16:53:35.683Z,0.40
2022-09-17T16:56:06.516Z,0.50
2022-09-17T16:58:33.025Z,0.50
2022-09-17T17:00:59.584Z,0.95
2022-09-17T17:03:26.220Z,0.30
2022-09-17T17:05:52.721Z,1.10
2022-09-17T17:08:19.264Z,0.70
2022-09-17T17:10:49.709Z,0.77
2022-09-17T17:13:16.527Z,0.40
2022-09-17T17:15:43.056Z,0.20
2022-09-17T17:18:09.559Z,0.73
2022-09-17T17:20:36.401Z,0.70
2022-09-17T17:23:02.931Z,0.50
2022-09-17T17:25:30.671Z,0.47
2022-09-17T17:27:57.240Z,0.50
2022-09-17T17:30:23.900Z,0.45
2022-09-17T17:32:52.363Z,0.52
2022-09-17T17:35:20.275Z,0.30
2022-09-17T17:37:46.793Z,0.50
2022-09-17T17:40:13.344Z,0.30
2022-09-17T17:42:39.852Z,0.50
2022-09-17T17:45:07.180Z,0.28
2022-09-17T17:47:34.325Z,1.03
2022-09-17T17:50:00.857Z,0.50
2022-09-17T17:52:27.434Z,0.40
2022-09-17T17:54:53.971Z,0.60
2022-09-17T17:57:20.490Z,0.70
2022-09-17T17:59:46.975Z,0.77
2022-09-17T18:02:13.574Z,0.60
2022-09-17T18:04:40.185Z,0.73
2022-09-17T18:07:06.697Z,0.60
2022-09-17T18:09:33.882Z,0.55
2022-09-17T18:12:00.365Z,0.47
2022-09-17T18:14:26.909Z,0.60
2022-09-17T18:16:53.388Z,0.70
2022-09-17T18:19:19.938Z,0.70
2022-09-17T18:21:46.427Z,0.50
2022-09-17T18:24:12.932Z,0.68
2022-09-17T18:26:39.533Z,0.55
2022-09-17T18:29:08.154Z,0.85
2022-09-17T18:31:35.661Z,0.30
2022-09-17T18:34:09.667Z,0.30
2022-09-17T18:36:37.270Z,0.63
2022-09-17T18:39:33.177Z,0.52
2022-09-17T18:41:52.569Z,0.50
2022-09-17T18:44:19.166Z,0.55
2022-09-17T18:46:45.722Z,1.08
2022-09-17T18:49:12.302Z,0.32
2022-09-17T18:51:38.830Z,0.70
2022-09-17T18:54:05.385Z,0.50
2022-09-17T18:56:32.341Z,0.50
2022-09-17T18:59:03.272Z,0.45
2022-09-17T19:01:32.530Z,0.75
2022-09-17T19:03:59.774Z,0.30
2022-09-17T19:06:27.761Z,0.60
2022-09-17T19:08:58.935Z,0.52
2022-09-17T19:11:25.439Z,0.50
2022-09-17T19:13:51.921Z,0.57
2022-09-17T19:16:18.513Z,0.40
2022-09-17T19:18:45.109Z,0.45
2022-09-17T19:21:19.807Z,0.47
2022-09-17T19:23:48.663Z,0.50
2022-09-17T19:26:17.683Z,0.55
2022-09-17T19:28:44.729Z,0.30
2022-09-17T19:31:13.842Z,0.22
2022-09-17T19:33:40.645Z,0.38
2022-09-17T19:36:10.523Z,0.35
2022-09-17T19:38:37.958Z,0.30
2022-09-17T19:41:07.112Z,0.55
2022-09-17T19:43:33.710Z,0.40
2022-09-17T19:46:06.011Z,0.20
2022-09-17T19:48:33.789Z,0.40
2022-09-17T19:51:00.249Z,0.40
2022-09-17T19:53:26.735Z,0.30
2022-09-17T19:55:53.468Z,0.38
2022-09-17T19:58:20.409Z,0.40
2022-09-17T20:00:47.090Z,0.50
2022-09-17T20:03:13.647Z,0.50
2022-09-17T20:05:40.193Z,0.65
2022-09-17T20:08:06.737Z,0.60
2022-09-17T20:10:36.295Z,0.52
2022-09-17T20:13:03.429Z,0.60
2022-09-17T20:15:29.990Z,0.98
2022-09-17T20:17:56.586Z,0.60
2022-09-17T20:20:23.093Z,0.47
2022-09-17T20:22:51.557Z,0.50
2022-09-17T20:25:18.059Z,0.85
2022-09-17T20:27:44.577Z,0.70
2022-09-17T20:30:11.384Z,0.73
2022-09-17T20:32:37.852Z,0.50
2022-09-17T20:35:04.487Z,0.93
2022-09-17T20:38:12.308Z,0.40
2022-09-17T20:40:17.605Z,0.95
2022-09-17T20:42:44.122Z,0.90
2022-09-17T20:45:10.726Z,0.68
2022-09-17T20:47:37.195Z,0.70
2022-09-17T20:50:03.879Z,0.70
2022-09-17T20:52:30.336Z,0.88
2022-09-17T20:54:56.835Z,0.50
2022-09-17T20:57:23.465Z,0.73
2022-09-17T20:59:50.007Z,0.60
2022-09-17T21:02:16.862Z,0.90
2022-09-17T21:04:43.394Z,1.20
2022-09-17T21:07:09.840Z,0.50
2022-09-17T21:09:36.445Z,0.63
2022-09-17T21:12:03.009Z,0.63
2022-09-17T21:14:29.474Z,0.32
2022-09-17T21:16:55.959Z,0.77
2022-09-17T21:19:22.472Z,0.50
2022-09-17T21:21:48.943Z,0.50
2022-09-17T21:24:15.413Z,0.70
2022-09-17T21:26:41.939Z,0.80
2022-09-17T21:29:08.404Z,0.70
2022-09-17T21:31:36.318Z,0.50
2022-09-17T21:34:05.346Z,0.47
2022-09-17T21:36:35.797Z,1.13
2022-09-17T21:39:05.602Z,0.55
2022-09-17T21:41:32.650Z,1.05
2022-09-17T21:43:59.522Z,0.80
2022-09-17T21:46:28.742Z,0.50
2022-09-17T21:48:57.841Z,0.60
2022-09-17T21:51:27.317Z,0.65
2022-09-17T21:53:55.585Z,0.38
2022-09-17T21:56:22.732Z,0.50
2022-09-17T21:58:58.333Z,0.40
2022-09-17T22:01:28.247Z,0.50
2022-09-17T22:03:55.651Z,0.50
2022-09-17T22:06:27.348Z,0.43
2022-09-17T22:08:54.403Z,0.20
2022-09-17T22:11:26.195Z,0.35
2022-09-17T22:14:09.307Z,0.40
2022-09-17T22:16:38.772Z,0.20
2022-09-17T22:19:06.492Z,0.20
2022-09-17T22:21:36.858Z,0.30
2022-09-17T22:24:04.760Z,0.30
2022-09-17T22:26:34.084Z,0.22
2022-09-17T22:29:06.368Z,0.50
2022-09-17T22:31:33.166Z,0.20
2022-09-17T22:33:59.827Z,0.10
2022-09-17T22:36:28.458Z,0.73
2022-09-17T22:38:57.452Z,0.47
2022-09-17T22:41:31.936Z,0.28
2022-09-17T22:44:04.183Z,0.35
2022-09-17T22:46:40.758Z,0.30
2022-09-17T22:49:09.556Z,0.40
2022-09-17T22:51:36.700Z,0.20
2022-09-17T22:54:03.500Z,0.47
2022-09-17T22:56:30.378Z,0.40
2022-09-17T22:58:58.396Z,0.70
2022-09-17T23:01:31.051Z,1.08
2022-09-17T23:03:59.099Z,0.30
2022-09-17T23:06:28.828Z,0.20
2022-09-17T23:08:56.142Z,0.30
2022-09-17T23:11:30.021Z,0.22
2022-09-17T23:13:59.757Z,0.43
2022-09-17T23:16:26.322Z,0.30
2022-09-17T23:18:53.065Z,0.57
2022-09-17T23:21:20.293Z,0.17
2022-09-17T23:23:49.635Z,0.17
2022-09-17T23:26:25.474Z,0.40
2022-09-17T23:28:52.380Z,0.20
2022-09-17T23:31:25.817Z,0.50
2022-09-17T23:33:53.499Z,0.22
2022-09-17T23:36:31.747Z,0.40
2022-09-17T23:38:58.995Z,0.43
2022-09-17T23:41:40.041Z,0.30
2022-09-17T23:44:13.748Z,0.30
2022-09-17T23:46:41.730Z,1.30
2022-09-17T23:49:11.097Z,0.30
2022-09-17T23:51:37.591Z,0.38
2022-09-17T23:54:04.622Z,0.40
2022-09-17T23:56:31.155Z,0.20
2022-09-17T23:59:00.262Z,0.47
